High Level Airport
CYOJ : now visible

Airfield :











YOU CAN JOIN US ON...

 
LOGIN :

Register | Disclaimer

   EN    FR    IT 

 









Legend :    VFR   Marginal VFR   IFR   Intensive IFR   Very Intensive IFR
Visi :
Ceiling :
>= 8 km
>= 3000ft
5 to 8 km
1000 to 3000 ft
1500m to 5 km
500 to 1000 ft
800 to 1500m
200 to 500 ft
< 800m
< 200 ft
Symbols :   Thunderstorms  Fog  Heavy snow  Heavy precipitations  Wind > 20 kt






- Airport Elevation : 1110 ft
- IATA code : YOJ


CYOJ - High Level

CURRENT METAR :
  • 150300Z 11002KT 10SM FEW021 M02/M04 A3017 RMK SC1 SC TR SLP240

EXPIRED METARs :
  • 150200Z 13006KT 10SM FEW021 M01/M04 A3016 RMK SC1 SLP238
  • 150100Z 11004KT 15SM SCT021 01/M03 A3016 RMK SC3 SLP238

TAF TAF CYOJ
Valid from the 15 at 01:00 until the 15 at 13:00 UTC


150038Z 1501/1513 VRB03KT P6SM BKN020
TEMPO 1501/1502 SCT020
FM150200 14006KT P6SM SCT030
TEMPO 1507/1513 BKN030 RMK NXT FCST BY 150700Z



MET'MAP, your aeronautical weather chart ! - Copyright ORBIFLY December 2007 - Disclaimer

ORBIFLY MET'MAP TEAM :

Programming & Development : Alexandra Zaïnal
Concept & Development : Baudouin d'Aumeries
Co-Development & Prog : Marc-Olivier Méhu
Technical & hardware support : Manuel Goepfert

Contact : metmap@orbifly.com




SOURCES & CREDITS :

   NOAA       Earth
Advisory